createdAt,value
2023-01-26T00:05:01.135Z,9.00
2023-01-26T00:10:05.022Z,11.20
2023-01-26T00:15:08.811Z,10.67
2023-01-26T00:20:13.012Z,10.50
2023-01-26T00:25:16.762Z,9.63
2023-01-26T00:30:20.995Z,12.63
2023-01-26T05:34:10.634Z,12.67
2023-01-26T05:39:14.120Z,16.07
2023-01-26T05:44:17.629Z,10.97
2023-01-26T05:49:21.115Z,22.43
2023-01-26T05:54:24.854Z,15.07
2023-01-26T05:59:28.766Z,14.00
2023-01-26T06:04:32.734Z,13.83
2023-01-26T06:09:36.283Z,13.77
2023-01-26T06:14:39.830Z,17.50
2023-01-26T06:19:43.523Z,19.33
2023-01-26T06:24:47.623Z,15.70
2023-01-26T06:29:51.089Z,17.10
2023-01-26T06:34:55.030Z,17.80
2023-01-26T06:39:58.689Z,14.00
2023-01-26T06:45:02.143Z,19.07
2023-01-26T06:50:06.076Z,15.37
2023-01-26T06:55:22.665Z,15.40
2023-01-26T07:00:26.447Z,13.40
2023-01-26T07:05:29.992Z,13.13
2023-01-26T07:10:33.584Z,15.47
2023-01-26T07:15:37.085Z,13.80
2023-01-26T07:20:40.571Z,14.70
2023-01-26T07:25:45.075Z,12.37
2023-01-26T07:30:49.396Z,18.37
2023-01-26T07:35:56.974Z,15.23
2023-01-26T07:41:04.531Z,17.27
2023-01-26T07:46:09.166Z,13.03
2023-01-26T07:51:12.664Z,16.87
2023-01-26T07:56:19.679Z,12.27
2023-01-26T08:01:23.318Z,13.83
2023-01-26T08:06:26.979Z,17.77
2023-01-26T08:11:30.752Z,18.50
2023-01-26T08:16:34.309Z,14.80
2023-01-26T08:21:37.794Z,16.03
2023-01-26T08:26:41.394Z,15.10
2023-01-26T08:31:45.077Z,14.17
2023-01-26T08:36:49.008Z,14.13
2023-01-26T08:41:52.580Z,15.80
2023-01-26T08:46:56.102Z,18.23
2023-01-26T08:51:59.598Z,14.80
2023-01-26T08:57:03.181Z,13.37
2023-01-26T09:02:07.088Z,19.23
2023-01-26T09:07:13.253Z,19.37
2023-01-26T09:12:16.993Z,16.03
2023-01-26T09:17:20.584Z,13.87
2023-01-26T09:22:24.057Z,21.37
2023-01-26T09:27:28.054Z,12.97
2023-01-26T09:32:31.559Z,13.67
2023-01-26T09:37:34.964Z,12.03
2023-01-26T09:43:07.925Z,17.10
2023-01-26T09:48:30.248Z,12.80
2023-01-26T09:54:01.994Z,23.27
2023-01-26T09:59:25.655Z,12.80
2023-01-26T10:04:36.757Z,14.57
2023-01-26T10:09:41.633Z,15.30
2023-01-26T10:14:52.310Z,16.47
2023-01-26T10:20:06.423Z,14.67
2023-01-26T10:25:33.990Z,11.30
2023-01-26T10:30:37.549Z,14.17
2023-01-26T10:35:41.184Z,21.87
2023-01-26T10:40:45.715Z,9.13
2023-01-26T10:45:49.295Z,13.37
2023-01-26T10:50:53.237Z,15.90
2023-01-26T10:56:07.399Z,13.87
2023-01-26T11:01:16.138Z,13.40
2023-01-26T11:06:19.582Z,16.10
2023-01-26T11:11:28.161Z,14.97
2023-01-26T11:16:31.756Z,15.87
2023-01-26T11:21:48.078Z,11.63
2023-01-26T11:27:12.916Z,16.07
2023-01-26T11:32:47.309Z,15.73
2023-01-26T11:38:01.472Z,13.30
2023-01-26T11:43:16.458Z,20.10
2023-01-26T11:48:33.766Z,12.50
2023-01-26T11:53:59.507Z,17.10
2023-01-26T11:59:10.197Z,16.57
2023-01-26T12:04:21.923Z,19.47
2023-01-26T12:10:01.024Z,18.37
2023-01-26T12:15:12.308Z,12.57
2023-01-26T12:20:27.491Z,21.10
2023-01-26T12:25:42.407Z,18.90
2023-01-26T12:30:52.310Z,15.67
2023-01-26T12:36:17.104Z,11.93
2023-01-26T12:41:28.322Z,12.00
2023-01-26T12:46:37.058Z,21.00
2023-01-26T12:51:44.913Z,14.17
2023-01-26T12:56:52.082Z,14.97
2023-01-26T13:01:55.768Z,13.67
2023-01-26T13:07:04.744Z,11.57
2023-01-26T13:12:44.282Z,11.53
2023-01-26T13:18:01.535Z,11.63
2023-01-26T13:23:28.221Z,15.80
2023-01-26T13:28:31.682Z,11.80
2023-01-26T13:33:35.220Z,13.80
2023-01-26T13:38:43.251Z,13.13
2023-01-26T13:44:13.125Z,14.87
2023-01-26T13:49:39.269Z,17.43
2023-01-26T13:54:43.451Z,17.57
2023-01-26T13:59:56.538Z,14.93
2023-01-26T14:05:01.091Z,17.90
2023-01-26T14:10:05.126Z,18.67
2023-01-26T14:15:24.574Z,14.00
2023-01-26T14:20:34.146Z,14.63
2023-01-26T14:25:38.438Z,12.57
2023-01-26T14:30:42.189Z,19.77
2023-01-26T14:35:57.006Z,12.50
2023-01-26T14:41:01.586Z,20.10
2023-01-26T14:46:44.561Z,16.30
2023-01-26T14:51:56.135Z,19.60
2023-01-26T14:57:02.624Z,22.07
2023-01-26T15:02:23.477Z,15.10
2023-01-26T15:07:41.056Z,18.30
2023-01-26T15:12:44.599Z,23.80
2023-01-26T15:17:50.618Z,16.43
2023-01-26T15:22:54.773Z,12.70
2023-01-26T15:27:59.747Z,15.23
2023-01-26T15:33:03.650Z,18.27
2023-01-26T15:38:14.640Z,17.53
2023-01-26T15:43:19.767Z,30.33
2023-01-26T15:48:24.563Z,19.53
2023-01-26T15:53:28.416Z,11.50
2023-01-26T15:58:35.147Z,14.30
2023-01-26T16:03:38.662Z,16.10
2023-01-26T16:08:42.182Z,16.73
2023-01-26T16:13:53.961Z,19.57
2023-01-26T16:19:05.758Z,21.73
2023-01-26T16:24:11.743Z,19.90
2023-01-26T16:29:15.242Z,18.17
2023-01-26T16:34:18.803Z,18.47
2023-01-26T16:39:22.680Z,19.77
2023-01-26T16:44:26.174Z,25.60
2023-01-26T16:49:29.954Z,22.87
2023-01-26T16:54:33.408Z,21.97
2023-01-26T16:59:37.031Z,21.67
2023-01-26T17:04:40.428Z,16.60
2023-01-26T17:09:43.909Z,17.97
2023-01-26T17:14:47.478Z,15.73
2023-01-26T17:19:50.985Z,20.67
2023-01-26T17:24:54.553Z,20.33
2023-01-26T17:29:58.212Z,21.10
2023-01-26T17:35:01.880Z,23.43
2023-01-26T17:40:06.459Z,22.20
2023-01-26T17:45:10.639Z,26.03
2023-01-26T17:50:14.436Z,23.63
2023-01-26T17:55:17.962Z,23.93
2023-01-26T18:00:22.110Z,23.10
2023-01-26T18:05:25.796Z,26.87
2023-01-26T18:10:30.639Z,29.17
2023-01-26T18:15:37.365Z,27.70
2023-01-26T18:20:41.139Z,23.87
2023-01-26T18:25:46.857Z,32.90
2023-01-26T18:30:50.398Z,19.97
2023-01-26T18:35:53.946Z,31.07
2023-01-26T18:40:57.437Z,19.67
2023-01-26T18:46:04.585Z,31.97
2023-01-26T18:51:11.258Z,19.60
2023-01-26T18:56:17.086Z,22.47
2023-01-26T19:01:21.384Z,20.03
2023-01-26T19:06:26.105Z,16.87
2023-01-26T19:11:31.630Z,19.70
2023-01-26T19:16:35.247Z,16.03
2023-01-26T19:21:38.911Z,19.87
2023-01-26T19:26:42.662Z,15.93
2023-01-26T19:31:46.425Z,19.00
2023-01-26T19:36:50.025Z,22.50
2023-01-26T19:41:54.102Z,19.37
2023-01-26T19:46:57.620Z,21.27
2023-01-26T19:52:01.275Z,18.93
2023-01-26T19:57:04.859Z,19.87
2023-01-26T20:02:10.102Z,10.80
2023-01-26T20:07:13.559Z,16.87
2023-01-26T20:12:17.408Z,23.03
2023-01-26T20:17:21.167Z,12.90
2023-01-26T20:22:24.751Z,11.97
2023-01-26T20:27:30.582Z,7.30
2023-01-26T20:32:35.439Z,12.50
2023-01-26T20:37:38.987Z,17.50
2023-01-26T20:42:42.583Z,11.07
2023-01-26T20:47:46.204Z,16.70
2023-01-26T20:52:49.738Z,13.90
2023-01-26T20:57:53.418Z,23.57
2023-01-26T21:02:57.147Z,20.60
2023-01-26T21:08:00.672Z,16.43
2023-01-26T21:13:05.386Z,23.87
2023-01-26T21:18:09.077Z,16.00
2023-01-26T21:23:13.572Z,22.10
2023-01-26T21:28:17.080Z,20.40
2023-01-26T21:33:20.717Z,24.17
2023-01-26T21:38:25.116Z,24.27
2023-01-26T21:43:29.620Z,24.13
2023-01-26T21:48:36.036Z,22.57
2023-01-26T21:53:39.502Z,23.03
2023-01-26T21:58:57.746Z,21.90
2023-01-26T22:04:02.835Z,20.87
2023-01-26T22:09:09.569Z,27.80
2023-01-26T22:14:23.591Z,26.30
2023-01-26T22:19:27.168Z,21.50
2023-01-26T22:24:30.716Z,32.20
2023-01-26T22:29:34.643Z,28.67
2023-01-26T22:34:38.214Z,26.90
2023-01-26T22:39:41.739Z,30.10
2023-01-26T22:44:45.249Z,25.37
2023-01-26T22:49:48.947Z,21.97
2023-01-26T22:54:52.497Z,28.93
2023-01-26T22:59:56.126Z,24.77
2023-01-26T23:04:59.619Z,28.20
2023-01-26T23:10:03.149Z,27.23
2023-01-26T23:15:06.959Z,28.23
2023-01-26T23:20:11.869Z,37.37
2023-01-26T23:25:34.487Z,28.07
2023-01-26T23:30:38.133Z,29.13
2023-01-26T23:35:41.681Z,36.03
2023-01-26T23:40:48.263Z,37.50
2023-01-26T23:45:52.384Z,38.10
2023-01-26T23:50:57.489Z,37.97
2023-01-26T23:56:17.565Z,30.83
